Time;durP1;ratioP1;P1;durP2;ratioP2;P2;SDS_P1;SDS_P2;PMS_P1;PMS_P2;Temp;Humidity;BMP_temperature;BMP_pressure;BME280_temperature;BME280_humidity;BME280_pressure;Samples;Min_cycle;Max_cycle;Signal;HPM_P1;HPM_P2
2022/04/13 00:01:10;;;;;;;4.00;1.67;;;;;;;-143.85;100.00;70650.75;5092630;28;20153;-84
2022/04/13 00:03:36;;;;;;;2.25;1.77;;;;;;;-143.85;100.00;70650.75;5092738;28;20070;-86
2022/04/13 00:06:02;;;;;;;2.15;1.08;;;;;;;-143.85;100.00;70650.75;5091587;28;20544;-84
2022/04/13 00:08:27;;;;;;;1.52;1.10;;;;;;;-143.85;100.00;70650.75;5091562;28;20115;-85
2022/04/13 00:10:53;;;;;;;2.28;1.52;;;;;;;-143.85;100.00;70650.75;5091575;28;20024;-84
2022/04/13 00:13:18;;;;;;;1.30;1.20;;;;;;;-143.85;100.00;70650.75;5096581;28;20107;-84
2022/04/13 00:15:44;;;;;;;3.70;1.35;;;;;;;-143.85;100.00;70650.75;5096159;28;20028;-85
2022/04/13 00:18:09;;;;;;;2.80;1.73;;;;;;;-143.85;100.00;70650.75;5095317;28;20066;-86
2022/04/13 00:20:36;;;;;;;1.23;1.13;;;;;;;-143.85;100.00;70650.75;5096429;28;20020;-84
2022/04/13 00:23:01;;;;;;;5.47;1.90;;;;;;;-143.85;100.00;70650.75;5096292;28;20028;-86
2022/04/13 00:25:28;;;;;;;1.30;1.20;;;;;;;-143.85;100.00;70650.75;5095148;28;20442;-85
2022/04/13 00:27:54;;;;;;;3.97;2.30;;;;;;;-143.85;100.00;70650.75;5094900;28;20032;-86
2022/04/13 00:30:20;;;;;;;1.60;1.48;;;;;;;-143.85;100.00;70650.75;5095013;28;20601;-85
2022/04/13 00:32:45;;;;;;;2.05;1.58;;;;;;;-143.85;100.00;70650.75;5095190;28;20107;-85
2022/04/13 00:35:10;;;;;;;1.35;1.27;;;;;;;-143.85;100.00;70650.75;5095158;28;20024;-85
2022/04/13 00:37:38;;;;;;;2.13;1.67;;;;;;;-143.85;100.00;70650.75;5094981;28;20152;-85
2022/04/13 00:40:05;;;;;;;3.42;2.42;;;;;;;-143.85;100.00;70650.75;5094943;28;20052;-85
2022/04/13 00:42:31;;;;;;;2.33;2.13;;;;;;;-143.85;100.00;70650.75;5094709;28;20032;-86
2022/04/13 00:44:57;;;;;;;3.33;1.42;;;;;;;-143.85;100.00;70650.75;5094572;28;20024;-86
2022/04/13 00:47:22;;;;;;;1.13;1.13;;;;;;;-143.85;100.00;70650.75;5094760;28;20024;-84
2022/04/13 00:49:48;;;;;;;2.30;1.92;;;;;;;-143.85;100.00;70650.75;5095429;28;20032;-84
2022/04/13 00:52:15;;;;;;;1.10;1.08;;;;;;;-143.85;100.00;70650.75;5094726;28;20028;-84
2022/04/13 00:54:45;;;;;;;3.08;1.90;;;;;;;-143.85;100.00;70650.75;5094666;28;20028;-84
2022/04/13 00:57:12;;;;;;;1.63;1.10;;;;;;;-143.85;100.00;70650.75;5095501;28;20051;-84
2022/04/13 00:59:39;;;;;;;1.73;1.27;;;;;;;-143.85;100.00;70650.75;5094569;28;20028;-84
2022/04/13 01:02:07;;;;;;;2.50;1.95;;;;;;;-143.85;100.00;70650.75;5094370;28;20027;-86
2022/04/13 01:04:34;;;;;;;0.70;0.70;;;;;;;-143.85;100.00;70650.75;5095002;28;20093;-84
2022/04/13 01:07:02;;;;;;;5.00;1.43;;;;;;;-143.85;100.00;70650.75;5094410;28;20028;-85
2022/04/13 01:09:29;;;;;;;1.23;1.00;;;;;;;-143.85;100.00;70650.75;5094276;28;20286;-84
2022/04/13 01:11:55;;;;;;;2.38;1.63;;;;;;;-143.85;100.00;70650.75;5094335;28;20036;-86
2022/04/13 01:14:20;;;;;;;1.77;1.67;;;;;;;-143.85;100.00;70650.75;5094264;28;20033;-84
2022/04/13 01:16:46;;;;;;;1.67;1.10;;;;;;;-143.85;100.00;70650.75;5094301;28;20032;-85
2022/04/13 01:19:14;;;;;;;1.55;0.70;;;;;;;-143.85;100.00;70650.75;5094780;28;20024;-84
2022/04/13 01:21:44;;;;;;;1.38;1.27;;;;;;;-143.85;100.00;70650.75;5094029;28;20543;-84
2022/04/13 01:24:10;;;;;;;12.73;1.55;;;;;;;-143.85;100.00;70650.75;5094340;28;20048;-84
2022/04/13 01:26:36;;;;;;;4.00;1.38;;;;;;;-143.85;100.00;70650.75;5093949;28;20110;-83
2022/04/13 01:29:01;;;;;;;3.63;2.03;;;;;;;-143.85;100.00;70650.75;5093772;28;20399;-83
2022/04/13 01:31:27;;;;;;;1.63;1.27;;;;;;;-143.85;100.00;70650.75;5094694;28;20032;-83
2022/04/13 01:33:53;;;;;;;0.98;0.95;;;;;;;-143.85;100.00;70650.75;5093718;28;20024;-83
2022/04/13 01:36:19;;;;;;;1.90;1.42;;;;;;;-143.85;100.00;70650.75;5094859;28;20107;-83
2022/04/13 01:38:45;;;;;;;5.63;2.72;;;;;;;-143.85;100.00;70650.75;5093606;28;20498;-83
2022/04/13 01:41:10;;;;;;;1.98;1.88;;;;;;;-143.85;100.00;70650.75;5093352;28;20039;-83
2022/04/13 01:43:35;;;;;;;1.20;1.17;;;;;;;-143.85;100.00;70650.75;5093706;28;20028;-83
2022/04/13 01:46:01;;;;;;;2.25;1.30;;;;;;;-143.85;100.00;70650.75;5094924;28;20078;-83
2022/04/13 01:48:29;;;;;;;0.57;0.57;;;;;;;-143.85;100.00;70650.75;5094703;28;20032;-83
2022/04/13 01:50:54;;;;;;;1.60;1.23;;;;;;;-143.85;100.00;70650.75;5093706;28;20491;-83
2022/04/13 01:53:20;;;;;;;0.80;0.80;;;;;;;-143.85;100.00;70650.75;5093609;28;20033;-83
2022/04/13 01:55:47;;;;;;;1.02;1.00;;;;;;;-143.85;100.00;70650.75;5093897;28;20028;-83
2022/04/13 01:58:12;;;;;;;2.65;1.05;;;;;;;-143.85;100.00;70650.75;5093647;28;20020;-84
2022/04/13 02:00:37;;;;;;;2.33;0.88;;;;;;;-143.85;100.00;70650.75;5093750;28;20077;-83
2022/04/13 02:03:03;;;;;;;1.98;1.30;;;;;;;-143.85;100.00;70650.75;5094959;28;20028;-83
2022/04/13 02:05:29;;;;;;;3.28;1.30;;;;;;;-143.85;100.00;70650.75;5094346;28;20059;-83
2022/04/13 02:07:54;;;;;;;1.35;1.25;;;;;;;-143.85;100.00;70650.75;5093301;28;20035;-83
2022/04/13 02:10:20;;;;;;;1.27;1.17;;;;;;;-143.85;100.00;70650.75;5092990;28;20048;-83
2022/04/13 02:12:47;;;;;;;2.33;1.73;;;;;;;-143.85;100.00;70650.75;5093040;28;20032;-83
2022/04/13 02:15:13;;;;;;;1.40;1.35;;;;;;;-143.85;100.00;70650.75;5093384;28;20059;-82
2022/04/13 02:17:38;;;;;;;3.92;1.92;;;;;;;-143.85;100.00;70650.75;5092989;28;20028;-83
2022/04/13 02:20:06;;;;;;;4.15;2.03;;;;;;;-143.85;100.00;70650.75;5092824;28;20441;-82
2022/04/13 02:22:31;;;;;;;3.55;1.42;;;;;;;-143.85;100.00;70650.75;5093892;28;20024;-83
2022/04/13 02:25:00;;;;;;;1.20;1.13;;;;;;;-143.85;100.00;70650.75;5092800;28;20024;-83
2022/04/13 02:27:26;;;;;;;5.00;1.00;;;;;;;-143.85;100.00;70650.75;5092665;28;20028;-82
2022/04/13 02:29:51;;;;;;;0.68;0.63;;;;;;;-143.85;100.00;70650.75;5093840;28;20020;-83
2022/04/13 02:32:17;;;;;;;2.03;1.92;;;;;;;-143.85;100.00;70650.75;5092709;28;20506;-84
2022/04/13 02:34:44;;;;;;;1.23;1.00;;;;;;;-143.85;100.00;70650.75;5091907;28;20027;-84
2022/04/13 02:37:10;;;;;;;0.73;0.73;;;;;;;-143.85;100.00;70650.75;5092532;28;20043;-84
2022/04/13 02:39:36;;;;;;;1.38;0.90;;;;;;;-143.85;100.00;70650.75;5093593;28;20205;-84
2022/04/13 02:42:01;;;;;;;1.77;1.05;;;;;;;-143.85;100.00;70650.75;5092487;28;20031;-84
2022/04/13 02:44:27;;;;;;;1.92;1.48;;;;;;;-143.85;100.00;70650.75;5093717;28;20039;-84
2022/04/13 02:46:52;;;;;;;3.15;2.15;;;;;;;-143.85;100.00;70650.75;5092509;28;20020;-84
2022/04/13 02:49:18;;;;;;;0.70;0.68;;;;;;;-143.85;100.00;70650.75;5092540;28;20037;-83
2022/04/13 02:51:43;;;;;;;1.77;0.98;;;;;;;-143.85;100.00;70650.75;5093474;28;20084;-83
2022/04/13 02:54:09;;;;;;;1.75;1.48;;;;;;;-143.85;100.00;70650.75;5092320;28;20032;-83
2022/04/13 02:56:35;;;;;;;1.13;1.02;;;;;;;-143.85;100.00;70650.75;5093641;28;20031;-84
2022/04/13 02:59:00;;;;;;;1.10;0.93;;;;;;;-143.85;100.00;70650.75;5092414;28;20074;-84
2022/04/13 03:01:26;;;;;;;10.43;1.30;;;;;;;-143.85;100.00;70650.75;5093390;28;20024;-84
2022/04/13 03:03:51;;;;;;;2.38;1.25;;;;;;;-143.85;100.00;70650.75;5092359;28;20028;-83
2022/04/13 03:06:17;;;;;;;1.77;1.50;;;;;;;-143.85;100.00;70650.75;5093257;28;20105;-82
2022/04/13 03:08:45;;;;;;;2.53;1.88;;;;;;;-143.85;100.00;70650.75;5093557;28;20035;-83
2022/04/13 03:11:10;;;;;;;2.28;1.50;;;;;;;-143.85;100.00;70650.75;5092057;28;20028;-83
2022/04/13 03:13:36;;;;;;;1.27;1.17;;;;;;;-143.85;100.00;70650.75;5093557;28;20085;-83
2022/04/13 03:16:02;;;;;;;4.47;2.05;;;;;;;-143.85;100.00;70650.75;5093053;28;20016;-83
2022/04/13 03:18:27;;;;;;;1.98;0.75;;;;;;;-143.85;100.00;70650.75;5092401;28;20036;-83
2022/04/13 03:20:52;;;;;;;1.20;1.10;;;;;;;-143.85;100.00;70650.75;5092059;28;20024;-81
2022/04/13 03:23:18;;;;;;;0.93;0.93;;;;;;;-143.85;100.00;70650.75;5091649;28;20024;-82
2022/04/13 03:25:43;;;;;;;14.23;1.85;;;;;;;-143.85;100.00;70650.75;5091949;28;20070;-81
2022/04/13 03:28:09;;;;;;;1.50;1.10;;;;;;;-143.85;100.00;70650.75;5091843;28;20495;-82
2022/04/13 03:30:34;;;;;;;1.63;1.48;;;;;;;-143.85;100.00;70650.75;5091963;28;20016;-81
2022/04/13 03:33:00;;;;;;;1.20;1.10;;;;;;;-143.85;100.00;70650.75;5092056;28;20373;-82
2022/04/13 03:35:25;;;;;;;1.30;1.20;;;;;;;-143.85;100.00;70650.75;5092932;28;20460;-82
2022/04/13 03:37:51;;;;;;;11.15;1.38;;;;;;;-143.85;100.00;70650.75;5091573;28;20115;-82
2022/04/13 03:40:16;;;;;;;1.33;1.23;;;;;;;-143.85;100.00;70650.75;5091301;28;20655;-81
2022/04/13 03:42:42;;;;;;;4.43;1.75;;;;;;;-143.85;100.00;70650.75;5093000;28;20028;-81
2022/04/13 03:45:11;;;;;;;4.30;1.65;;;;;;;-143.85;100.00;70650.75;5092745;28;20503;-81
2022/04/13 03:47:37;;;;;;;2.55;1.50;;;;;;;-143.85;100.00;70650.75;5095071;28;20028;-81
2022/04/13 03:50:03;;;;;;;1.65;1.30;;;;;;;-143.85;100.00;70650.75;5097002;28;20032;-80
2022/04/13 03:52:32;;;;;;;0.70;0.70;;;;;;;-143.85;100.00;70650.75;5095258;28;20020;-80
2022/04/13 03:54:57;;;;;;;3.88;1.15;;;;;;;-143.85;100.00;70650.75;5095096;28;20035;-80
2022/04/13 03:57:23;;;;;;;1.85;1.48;;;;;;;-143.85;100.00;70650.75;5096456;28;20089;-81
2022/04/13 03:59:48;;;;;;;1.52;1.33;;;;;;;-143.85;100.00;70650.75;5095142;28;20101;-81
2022/04/13 04:02:15;;;;;;;1.70;1.30;;;;;;;-143.85;100.00;70650.75;5094991;28;20400;-81
2022/04/13 04:04:41;;;;;;;1.15;1.10;;;;;;;-143.85;100.00;70650.75;5095366;28;20391;-81
2022/04/13 04:07:06;;;;;;;1.25;1.25;;;;;;;-143.85;100.00;70650.75;5094752;28;20024;-81
2022/04/13 04:09:31;;;;;;;2.55;1.40;;;;;;;-143.85;100.00;70650.75;5095391;28;20028;-80
2022/04/13 04:11:57;;;;;;;1.58;1.52;;;;;;;-143.85;100.00;70650.75;5094954;28;20028;-81
2022/04/13 04:14:22;;;;;;;6.07;1.42;;;;;;;-143.85;100.00;70650.75;5094956;28;20028;-83
2022/04/13 04:16:48;;;;;;;1.88;1.52;;;;;;;-143.85;100.00;70650.75;5096378;28;20088;-82
2022/04/13 04:19:13;;;;;;;2.33;1.40;;;;;;;-143.85;100.00;70650.75;5094991;28;20032;-82
2022/04/13 04:21:38;;;;;;;2.00;1.90;;;;;;;-143.85;100.00;70650.75;5095361;28;20369;-82
2022/04/13 04:24:04;;;;;;;1.25;1.20;;;;;;;-143.85;100.00;70650.75;5095001;28;20539;-82
2022/04/13 04:26:30;;;;;;;1.45;1.35;;;;;;;-143.85;100.00;70650.75;5094915;28;20024;-81
2022/04/13 04:28:56;;;;;;;1.30;1.23;;;;;;;-143.85;100.00;70650.75;5094975;28;20411;-82
2022/04/13 04:31:49;;;;;;;4.68;1.10;;;;;;;-143.85;100.00;70650.75;5094935;28;20399;-81
2022/04/13 04:34:06;;;;;;;2.08;1.40;;;;;;;-143.85;100.00;70650.75;5095883;28;20028;-82
2022/04/13 04:36:32;;;;;;;2.22;1.10;;;;;;;-143.85;100.00;70650.75;5094968;28;20042;-82
2022/04/13 04:38:57;;;;;;;2.58;1.63;;;;;;;-143.85;100.00;70650.75;5096363;28;20127;-82
2022/04/13 04:41:23;;;;;;;2.35;1.58;;;;;;;-143.85;100.00;70650.75;5095914;28;20483;-82
2022/04/13 04:43:48;;;;;;;4.28;1.38;;;;;;;-143.85;100.00;70650.75;5094571;28;20039;-82
2022/04/13 04:46:13;;;;;;;3.03;1.52;;;;;;;-143.85;100.00;70650.75;5094689;28;20020;-82
2022/04/13 04:48:42;;;;;;;1.52;1.20;;;;;;;-143.85;100.00;70650.75;5094707;28;20403;-83
2022/04/13 04:51:10;;;;;;;6.25;2.05;;;;;;;-143.85;100.00;70650.75;5095618;28;20492;-82
2022/04/13 04:53:36;;;;;;;;;;;;;;;-143.85;100.00;70650.75;5095260;28;20082;-83
2022/04/13 04:56:01;;;;;;;2.08;1.70;;;;;;;-143.85;100.00;70650.75;5094867;28;20363;-83
2022/04/13 04:58:27;;;;;;;1.92;1.65;;;;;;;-143.85;100.00;70650.75;5093246;28;20028;-82
2022/04/13 05:00:53;;;;;;;2.88;2.22;;;;;;;-143.85;100.00;70650.75;5094380;28;20502;-83
2022/04/13 05:03:19;;;;;;;1.90;1.33;;;;;;;-143.85;100.00;70650.75;5094325;28;20032;-83
2022/04/13 05:05:44;;;;;;;2.63;1.63;;;;;;;-143.85;100.00;70650.75;5094461;28;20025;-83
2022/04/13 05:08:10;;;;;;;2.67;2.28;;;;;;;-143.85;100.00;70650.75;5094509;28;20028;-83
2022/04/13 05:10:35;;;;;;;3.55;1.60;;;;;;;-143.85;100.00;70650.75;5094922;28;20026;-84
2022/04/13 05:13:02;;;;;;;3.38;1.80;;;;;;;-143.85;100.00;70650.75;5094147;28;20028;-84
2022/04/13 05:15:28;;;;;;;2.40;1.80;;;;;;;-143.85;100.00;70650.75;5094098;28;20024;-84
2022/04/13 05:17:54;;;;;;;5.07;1.95;;;;;;;-143.85;100.00;70650.75;5093930;28;20051;-83
2022/04/13 05:20:19;;;;;;;4.85;1.65;;;;;;;-143.85;100.00;70650.75;5093931;28;20060;-83
2022/04/13 05:22:45;;;;;;;1.60;1.45;;;;;;;-143.85;100.00;70650.75;5093888;28;20027;-84
2022/04/13 05:25:12;;;;;;;2.25;1.65;;;;;;;-143.85;100.00;70650.75;5093886;28;20494;-84
2022/04/13 05:27:38;;;;;;;2.08;1.88;;;;;;;-143.85;100.00;70650.75;5093618;28;20118;-80
2022/04/13 05:30:06;;;;;;;1.73;1.63;;;;;;;-143.85;100.00;70650.75;5093057;28;20063;-81
2022/04/13 05:32:32;;;;;;;2.70;1.40;;;;;;;-143.85;100.00;70650.75;5092961;28;20028;-81
2022/04/13 05:35:00;;;;;;;1.55;1.25;;;;;;;-143.85;100.00;70650.75;5092260;28;20032;-81
2022/04/13 05:37:27;;;;;;;1.20;0.90;;;;;;;-143.85;100.00;70650.75;5093226;28;20480;-82
2022/04/13 05:39:53;;;;;;;26.02;1.80;;;;;;;-143.85;100.00;70650.75;5092556;28;20051;-81
2022/04/13 05:42:25;;;;;;;2.15;1.42;;;;;;;-143.85;100.00;70650.75;5092202;28;20024;-81
2022/04/13 05:44:51;;;;;;;1.25;1.10;;;;;;;-143.85;100.00;70650.75;5092440;28;20028;-82
2022/04/13 05:47:17;;;;;;;13.90;1.00;;;;;;;-143.85;100.00;70650.75;5092927;28;20458;-81
2022/04/13 05:49:43;;;;;;;2.22;1.35;;;;;;;-143.85;100.00;70650.75;5092764;28;20081;-81
2022/04/13 05:52:08;;;;;;;2.25;1.45;;;;;;;-143.85;100.00;70650.75;5092287;28;20028;-81
2022/04/13 05:54:34;;;;;;;1.95;1.15;;;;;;;-143.85;100.00;70650.75;5093702;28;20085;-81
2022/04/13 05:57:02;;;;;;;1.40;1.30;;;;;;;-143.85;100.00;70650.75;5092415;28;20086;-83
2022/04/13 05:59:28;;;;;;;;;;;;;;;-143.85;100.00;70650.75;5092736;28;20510;-82
2022/04/13 06:01:53;;;;;;;1.15;0.70;;;;;;;-143.85;100.00;70650.75;5092482;28;19912;-83
2022/04/13 06:04:19;;;;;;;3.03;1.40;;;;;;;-143.85;100.00;70650.75;5093383;28;20032;-82
2022/04/13 06:06:44;;;;;;;1.58;1.25;;;;;;;-143.85;100.00;70650.75;5092283;28;20034;-81
2022/04/13 06:09:09;;;;;;;5.18;1.05;;;;;;;-143.85;100.00;70650.75;5092088;28;20028;-83
2022/04/13 06:11:35;;;;;;;1.10;0.80;;;;;;;-143.85;100.00;70650.75;5092148;28;21006;-83
2022/04/13 06:14:00;;;;;;;1.67;1.15;;;;;;;-143.85;100.00;70650.75;5092409;28;20544;-87
2022/04/13 06:16:26;;;;;;;1.27;1.17;;;;;;;-143.85;100.00;70650.75;5092674;28;20099;-86
2022/04/13 06:18:51;;;;;;;1.85;1.10;;;;;;;-143.85;100.00;70650.75;5092079;28;20197;-84
2022/04/13 06:21:16;;;;;;;2.28;1.25;;;;;;;-143.85;100.00;70650.75;5093015;28;20451;-82
2022/04/13 06:23:42;;;;;;;2.45;1.02;;;;;;;-143.85;100.00;70650.75;5092492;28;20081;-84
2022/04/13 06:26:07;;;;;;;3.40;1.05;;;;;;;-143.85;100.00;70650.75;5092290;28;20032;-82
2022/04/13 06:28:33;;;;;;;1.10;0.95;;;;;;;-143.85;100.00;70650.75;5091906;28;20024;-85
2022/04/13 06:30:58;;;;;;;1.85;1.52;;;;;;;-143.85;100.00;70650.75;5092836;28;20020;-85
2022/04/13 06:33:24;;;;;;;2.08;1.30;;;;;;;-143.85;100.00;70650.75;5092705;28;20028;-85
2022/04/13 06:35:49;;;;;;;1.25;1.15;;;;;;;-143.85;100.00;70650.75;5092511;28;20030;-85
2022/04/13 06:38:14;;;;;;;1.60;1.08;;;;;;;-143.85;100.00;70650.75;5092125;28;20063;-84
2022/04/13 06:40:40;;;;;;;1.63;0.85;;;;;;;-143.85;100.00;70650.75;5092037;28;20473;-84
2022/04/13 06:43:05;;;;;;;1.98;1.15;;;;;;;-143.85;100.00;70650.75;5092322;28;20059;-85
2022/04/13 06:45:31;;;;;;;1.55;1.42;;;;;;;-143.85;100.00;70650.75;5093729;28;20028;-85
2022/04/13 06:47:56;;;;;;;1.90;0.98;;;;;;;-143.85;100.00;70650.75;5092002;28;20035;-84
2022/04/13 06:50:27;;;;;;;1.70;1.13;;;;;;;-143.85;100.00;70650.75;5092219;28;20063;-85
2022/04/13 06:52:52;;;;;;;1.63;0.90;;;;;;;-143.85;100.00;70650.75;5092728;28;20032;-85
2022/04/13 06:55:17;;;;;;;1.92;1.23;;;;;;;-143.85;100.00;70650.75;5092605;28;20030;-85
2022/04/13 06:57:43;;;;;;;3.25;1.42;;;;;;;-143.85;100.00;70650.75;5092312;28;20395;-84
2022/04/13 07:00:11;;;;;;;1.83;1.00;;;;;;;-143.85;100.00;70650.75;5094051;28;20177;-85
2022/04/13 07:02:38;;;;;;;1.13;1.02;;;;;;;-143.85;100.00;70650.75;5093316;28;20076;-85
2022/04/13 07:05:04;;;;;;;3.08;1.05;;;;;;;-143.85;100.00;70650.75;5093355;28;20035;-85
2022/04/13 07:07:30;;;;;;;2.22;1.30;;;;;;;-143.85;100.00;70650.75;5092345;28;20024;-84
2022/04/13 07:09:55;;;;;;;3.03;1.40;;;;;;;-143.85;100.00;70650.75;5093315;28;20028;-86
2022/04/13 07:12:21;;;;;;;3.17;1.52;;;;;;;-143.85;100.00;70650.75;5091733;28;20114;-87
2022/04/13 07:14:46;;;;;;;2.38;1.10;;;;;;;-143.85;100.00;70650.75;5093180;28;20392;-85
2022/04/13 07:17:12;;;;;;;1.95;1.13;;;;;;;-143.85;100.00;70650.75;5091991;28;20024;-85
2022/04/13 07:19:37;;;;;;;1.65;1.08;;;;;;;-143.85;100.00;70650.75;5092329;28;20195;-86
2022/04/13 07:22:03;;;;;;;2.63;1.55;;;;;;;-143.85;100.00;70650.75;5095227;28;20023;-85
2022/04/13 07:24:29;;;;;;;2.45;1.45;;;;;;;-143.85;100.00;70650.75;5096015;28;20028;-86
2022/04/13 07:26:54;;;;;;;1.23;1.02;;;;;;;-143.85;100.00;70650.75;5095917;28;20446;-87
2022/04/13 07:29:20;;;;;;;1.60;1.00;;;;;;;-143.85;100.00;70650.75;5096120;28;20039;-85
2022/04/13 07:31:45;;;;;;;3.40;1.52;;;;;;;-143.85;100.00;70650.75;5096095;28;20039;-87
2022/04/13 07:34:11;;;;;;;1.73;1.35;;;;;;;-143.85;100.00;70650.75;5096439;28;20115;-86
2022/04/13 07:36:36;;;;;;;3.30;1.67;;;;;;;-143.85;100.00;70650.75;5096082;28;20094;-86
2022/04/13 07:39:02;;;;;;;1.65;1.30;;;;;;;-143.85;100.00;70650.75;5097281;28;20388;-86
2022/04/13 07:41:28;;;;;;;2.88;1.92;;;;;;;-143.85;100.00;70650.75;5095874;28;20476;-86
2022/04/13 07:44:00;;;;;;;2.65;1.42;;;;;;;-143.85;100.00;70650.75;5096579;28;20028;-86
2022/04/13 07:46:27;;;;;;;3.30;1.65;;;;;;;-143.85;100.00;70650.75;5095934;28;20109;-87
2022/04/13 07:48:53;;;;;;;2.63;1.33;;;;;;;-143.85;100.00;70650.75;5096004;28;20120;-87
2022/04/13 07:51:19;;;;;;;2.08;1.52;;;;;;;-143.85;100.00;70650.75;5095732;28;20020;-87
2022/04/13 07:53:44;;;;;;;3.10;1.95;;;;;;;-143.85;100.00;70650.75;5096771;28;20035;-87
2022/04/13 07:56:10;;;;;;;2.65;1.48;;;;;;;-143.85;100.00;70650.75;5096690;28;20054;-86
2022/04/13 07:58:36;;;;;;;2.78;1.65;;;;;;;-143.85;100.00;70650.75;5095779;28;20399;-87
2022/04/13 08:01:01;;;;;;;3.25;1.88;;;;;;;-143.85;100.00;70650.75;5095696;28;20502;-86
2022/04/13 08:03:27;;;;;;;7.18;2.38;;;;;;;-143.85;100.00;70650.75;5096550;28;20024;-86
2022/04/13 08:05:52;;;;;;;3.78;1.98;;;;;;;-143.85;100.00;70650.75;5095496;28;20020;-86
2022/04/13 08:08:17;;;;;;;4.28;1.33;;;;;;;-143.85;100.00;70650.75;5095474;28;20036;-86
2022/04/13 08:10:43;;;;;;;4.55;1.88;;;;;;;-143.85;100.00;70650.75;5096572;28;20067;-86
2022/04/13 08:13:08;;;;;;;3.58;2.85;;;;;;;-143.85;100.00;70650.75;5095517;28;20028;-87
2022/04/13 08:15:34;;;;;;;3.40;1.38;;;;;;;-143.85;100.00;70650.75;5094932;28;20035;-87
2022/04/13 08:17:59;;;;;;;3.35;1.27;;;;;;;-143.85;100.00;70650.75;5095355;28;20028;-85
2022/04/13 08:20:25;;;;;;;2.15;1.65;;;;;;;-143.85;100.00;70650.75;5095371;28;20506;-83
2022/04/13 08:22:50;;;;;;;2.28;1.83;;;;;;;-143.85;100.00;70650.75;5096263;28;20081;-86
2022/04/13 08:25:16;;;;;;;2.72;1.48;;;;;;;-143.85;100.00;70650.75;5095687;28;20031;-84
2022/04/13 08:27:41;;;;;;;2.78;1.83;;;;;;;-143.85;100.00;70650.75;5096579;28;20032;-85
2022/04/13 08:30:07;;;;;;;2.83;1.38;;;;;;;-143.85;100.00;70650.75;5095010;28;20028;-84
2022/04/13 08:32:32;;;;;;;1.85;1.00;;;;;;;-143.85;100.00;70650.75;5094972;28;20545;-86
2022/04/13 08:34:58;;;;;;;5.20;2.03;;;;;;;-143.85;100.00;70650.75;5096378;28;20027;-85
2022/04/13 08:37:25;;;;;;;3.72;1.50;;;;;;;-143.85;100.00;70650.75;5096759;28;20028;-85
2022/04/13 08:39:50;;;;;;;1.77;1.20;;;;;;;-143.85;100.00;70650.75;5096464;28;20113;-85
2022/04/13 08:42:44;;;;;;;3.67;1.15;;;;;;;-143.85;100.00;70650.75;5096203;28;20480;-85
2022/04/13 08:45:22;;;;;;;4.60;1.50;;;;;;;-143.85;100.00;70650.75;5086236;28;20369;-85
2022/04/13 08:47:49;;;;;;;;;;;;;;;-143.85;100.00;70650.75;5095340;28;20052;-85
2022/04/13 08:50:14;;;;;;;2.92;1.27;;;;;;;-143.85;100.00;70650.75;5096037;28;19998;-85
2022/04/13 08:52:41;;;;;;;1.98;1.10;;;;;;;-143.85;100.00;70650.75;5095221;28;20573;-86
2022/04/13 08:55:09;;;;;;;2.10;0.70;;;;;;;-143.85;100.00;70650.75;5095408;28;20487;-84
2022/04/13 08:57:46;;;;;;;2.72;1.00;;;;;;;-143.85;100.00;70650.75;5094950;28;20111;-86
2022/04/13 09:00:14;;;;;;;5.80;1.00;;;;;;;-143.85;100.00;70650.75;5096246;28;20028;-86
2022/04/13 09:02:52;;;;;;;;;;;;;;;-143.85;100.00;70650.75;5095094;28;20025;-88
2022/04/13 09:05:24;;;;;;;1.33;1.20;;;;;;;-143.85;100.00;70650.75;5094836;28;19915;-87
2022/04/13 09:08:02;;;;;;;1.25;1.15;;;;;;;-143.85;100.00;70650.75;5095745;28;20056;-88
2022/04/13 09:10:29;;;;;;;18.00;8.50;;;;;;;-143.85;100.00;70650.75;5094876;28;20036;-87
2022/04/13 09:12:56;;;;;;;4.10;2.20;;;;;;;-143.85;100.00;70650.75;5094211;28;20043;-87
2022/04/13 09:15:23;;;;;;;5.45;1.67;;;;;;;-143.85;100.00;70650.75;5094686;28;20515;-87
2022/04/13 09:17:49;;;;;;;5.15;2.22;;;;;;;-143.85;100.00;70650.75;5094804;28;20122;-89
2022/04/13 09:20:15;;;;;;;9.13;1.70;;;;;;;-143.85;100.00;70650.75;5094811;28;20472;-88
2022/04/13 09:22:42;;;;;;;3.70;0.80;;;;;;;-143.85;100.00;70650.75;5094249;28;20016;-88
2022/04/13 09:25:09;;;;;;;1.25;1.00;;;;;;;-143.85;100.00;70650.75;5095231;28;20032;-87
2022/04/13 09:27:36;;;;;;;4.53;1.02;;;;;;;-143.85;100.00;70650.75;5094024;28;20472;-88
2022/04/13 09:30:03;;;;;;;1.73;1.52;;;;;;;-143.85;100.00;70650.75;5095043;28;20035;-86
2022/04/13 09:32:30;;;;;;;1.30;1.05;;;;;;;-143.85;100.00;70650.75;5094312;28;20422;-87
2022/04/13 09:34:56;;;;;;;3.00;1.00;;;;;;;-143.85;100.00;70650.75;5093994;28;20028;-86
2022/04/13 09:37:22;;;;;;;2.63;1.58;;;;;;;-143.85;100.00;70650.75;5093905;28;20108;-87
2022/04/13 09:39:48;;;;;;;2.15;1.42;;;;;;;-143.85;100.00;70650.75;5095090;28;20044;-86
2022/04/13 09:42:14;;;;;;;2.90;1.40;;;;;;;-143.85;100.00;70650.75;5094481;28;20112;-86
2022/04/13 09:44:43;;;;;;;3.40;1.30;;;;;;;-143.85;100.00;70650.75;5094253;28;20036;-86
2022/04/13 09:47:10;;;;;;;1.27;1.17;;;;;;;-143.85;100.00;70650.75;5093927;28;20115;-87
2022/04/13 09:49:52;;;;;;;1.30;1.15;;;;;;;-143.85;100.00;70650.75;5093649;28;20024;-87
2022/04/13 09:52:20;;;;;;;2.13;1.00;;;;;;;-143.85;100.00;70650.75;5093772;28;20520;-87
2022/04/13 09:54:46;;;;;;;1.65;1.20;;;;;;;-143.85;100.00;70650.75;5094501;28;20024;-87
2022/04/13 09:57:22;;;;;;;2.30;2.00;;;;;;;-143.85;100.00;70650.75;5093512;28;20031;-87
2022/04/13 09:59:56;;;;;;;1.60;1.17;;;;;;;-143.85;100.00;70650.75;5093398;28;20035;-87
2022/04/13 10:02:44;;;;;;;1.90;1.70;;;;;;;-143.85;100.00;70650.75;5093248;28;20114;-87
2022/04/13 10:05:21;;;;;;;5.72;2.70;;;;;;;-143.85;100.00;70650.75;5093269;28;20032;-87
2022/04/13 10:08:04;;;;;;;2.33;1.53;;;;;;;-143.85;100.00;70650.75;5094645;28;20464;-86
2022/04/13 10:10:30;;;;;;;1.65;0.80;;;;;;;-143.85;100.00;70650.75;5093367;28;20020;-86
2022/04/13 10:12:55;;;;;;;1.15;0.98;;;;;;;-143.85;100.00;70650.75;5093306;28;20055;-87
2022/04/13 10:15:21;;;;;;;2.50;1.60;;;;;;;-143.85;100.00;70650.75;5093131;28;20024;-87
2022/04/13 10:17:47;;;;;;;1.77;1.35;;;;;;;-143.85;100.00;70650.75;5092982;28;20028;-85
2022/04/13 10:20:12;;;;;;;5.40;3.38;;;;;;;-143.85;100.00;70650.75;5094244;28;20051;-85
2022/04/13 10:23:00;;;;;;;1.55;1.42;;;;;;;-143.85;100.00;70650.75;5092804;28;20047;-85
2022/04/13 10:25:27;;;;;;;2.83;1.58;;;;;;;-143.85;100.00;70650.75;5093268;28;20054;-85
2022/04/13 10:27:57;;;;;;;2.75;1.60;;;;;;;-143.85;100.00;70650.75;5092603;28;20040;-85
2022/04/13 10:30:36;;;;;;;2.85;1.30;;;;;;;-143.85;100.00;70650.75;5093549;28;20031;-85
2022/04/13 10:33:01;;;;;;;1.35;1.25;;;;;;;-143.85;100.00;70650.75;5092900;28;20036;-86
2022/04/13 10:35:29;;;;;;;1.60;1.33;;;;;;;-143.85;100.00;70650.75;5092767;28;20030;-86
2022/04/13 10:37:55;;;;;;;1.00;0.90;;;;;;;-143.85;100.00;70650.75;5092515;28;20556;-86
2022/04/13 10:40:23;;;;;;;4.70;1.45;;;;;;;-143.85;100.00;70650.75;5093441;28;20044;-85
2022/04/13 10:42:51;;;;;;;1.10;0.98;;;;;;;-143.85;100.00;70650.75;5092926;28;20031;-85
2022/04/13 10:45:17;;;;;;;1.23;1.10;;;;;;;-143.85;100.00;70650.75;5092592;28;20032;-86
2022/04/13 10:47:58;;;;;;;6.53;2.03;;;;;;;-143.85;100.00;70650.75;5092365;28;20035;-85
2022/04/13 10:50:49;;;;;;;2.70;1.13;;;;;;;-143.85;100.00;70650.75;5093353;28;20027;-87
2022/04/13 10:53:24;;;;;;;3.80;1.10;;;;;;;-143.85;100.00;70650.75;5093266;28;20032;-86
2022/04/13 10:56:01;;;;;;;1.95;0.95;;;;;;;-143.85;100.00;70650.75;5092974;28;20031;-87
2022/04/13 10:58:35;;;;;;;1.40;0.82;;;;;;;-143.85;100.00;70650.75;5093774;28;20016;-86
2022/04/13 11:01:05;;;;;;;4.32;1.33;;;;;;;-143.85;100.00;70650.75;5092476;28;20547;-88
2022/04/13 11:03:38;;;;;;;1.40;0.95;;;;;;;-143.85;100.00;70650.75;5092087;28;20062;-87
2022/04/13 11:06:05;;;;;;;0.68;0.63;;;;;;;-143.85;100.00;70650.75;5092314;28;20032;-88
2022/04/13 11:08:52;;;;;;;5.53;1.00;;;;;;;-143.85;100.00;70650.75;5093769;28;20059;-88